KSSC/SSC METAR and TAF weather

Enter ICAO airport designator
Station Type Date Time Source
KSSC METAR 2021/05/15 01:56 UTC NOAA

KSSC 150156Z AUTO 00000KT 10SM CLR 13/08 A3023 RMK AO2 SLP238 T01340076 $


Station Type Date Time Source
KSSC Decoded METAR 2021/05/15 01:56 UTC NOAA

Shaw Air Force Base, SC, United States (KSSC) 33-58N 080-29W 73M
May 14, 2021 - 09:56 PM EDT / 2021.05.15 0156 UTC
Wind: Calm:0
Visibility: 10 mile(s):0
Sky conditions: clear
Temperature: 56.1 F (13.4 C)
Dew Point: 45.7 F (7.6 C)
Relative Humidity: 67%
Pressure (altimeter): 30.23 in. Hg (1023 hPa)
ob: KSSC 150156Z AUTO 00000KT 10SM CLR 13/08 A3023 RMK AO2 SLP238 T01340076
cycle: 2

Station Type Date Time Source
KSSC TAF 2021/05/14 23:03 UTC NOAA

TAF KSSC 142300Z 1423/1605 02006KT 9999 FEW090 QNH3019INS TX25/1520Z TN09/1510Z LAST NO
AMDS AFT 1423 NEXT 1507

Example: see airport list